createdAt,value
2018-12-07T00:00:46.330Z,28.27
2018-12-07T00:03:15.470Z,25.53
2018-12-07T00:05:44.626Z,27.43
2018-12-07T00:08:13.778Z,26.27
2018-12-07T00:10:43.612Z,27.43
2018-12-07T00:13:12.768Z,26.60
2018-12-07T00:15:41.943Z,26.57
2018-12-07T00:18:11.170Z,25.77
2018-12-07T00:20:40.517Z,25.70
2018-12-07T00:23:09.815Z,25.77
2018-12-07T00:25:39.056Z,24.97
2018-12-07T00:28:08.338Z,23.03
2018-12-07T00:30:37.465Z,22.37
2018-12-07T00:33:06.645Z,24.80
2018-12-07T00:35:35.938Z,24.83
2018-12-07T00:38:05.175Z,25.97
2018-12-07T00:40:34.474Z,26.70
2018-12-07T00:43:03.798Z,24.67
2018-12-07T00:45:33.298Z,25.13
2018-12-07T00:48:02.601Z,23.20
2018-12-07T00:50:31.734Z,22.67
2018-12-07T00:53:01.282Z,23.77
2018-12-07T00:55:39.947Z,22.70
2018-12-07T00:58:09.241Z,21.13
2018-12-07T01:03:19.524Z,20.37
2018-12-07T01:05:48.871Z,20.40
2018-12-07T01:08:17.983Z,20.20
2018-12-07T01:10:47.190Z,22.43
2018-12-07T01:13:16.542Z,21.40
2018-12-07T01:15:45.764Z,22.27
2018-12-07T01:18:15.116Z,23.67
2018-12-07T01:20:44.318Z,23.23
2018-12-07T01:23:13.579Z,23.27
2018-12-07T01:25:43.157Z,22.80
2018-12-07T01:28:12.383Z,21.90
2018-12-07T01:30:41.511Z,21.80
2018-12-07T01:33:10.959Z,22.10
2018-12-07T01:35:40.110Z,21.63
2018-12-07T01:38:09.260Z,21.17
2018-12-07T01:40:38.883Z,21.90
2018-12-07T01:43:08.288Z,21.30
2018-12-07T01:45:37.536Z,21.20
2018-12-07T01:48:06.901Z,20.10
2018-12-07T01:50:36.066Z,18.23
2018-12-07T01:53:05.308Z,18.43
2018-12-07T01:55:34.707Z,16.40
2018-12-07T01:58:04.185Z,16.57
2018-12-07T02:00:33.503Z,15.60
2018-12-07T02:03:02.885Z,15.60
2018-12-07T02:05:32.296Z,16.10
2018-12-07T02:08:01.433Z,15.53
2018-12-07T02:10:30.862Z,15.30
2018-12-07T02:13:00.044Z,14.60
2018-12-07T02:15:29.296Z,15.93
2018-12-07T02:17:58.611Z,15.77
2018-12-07T02:20:27.725Z,16.47
2018-12-07T02:22:56.800Z,14.67
2018-12-07T02:25:26.080Z,14.77
2018-12-07T02:27:59.731Z,14.97
2018-12-07T02:30:28.961Z,15.27
2018-12-07T02:32:58.211Z,14.90
2018-12-07T02:35:29.366Z,15.30
2018-12-07T02:37:58.647Z,15.03
2018-12-07T02:43:20.955Z,13.73
2018-12-07T02:45:50.194Z,12.83
2018-12-07T02:48:19.548Z,13.27
2018-12-07T02:50:48.950Z,13.50
2018-12-07T02:53:18.169Z,13.23
2018-12-07T02:55:47.441Z,12.93
2018-12-07T02:58:16.795Z,12.00
2018-12-07T03:00:46.051Z,13.13
2018-12-07T03:03:15.267Z,12.63
2018-12-07T03:05:44.663Z,12.47
2018-12-07T03:08:13.928Z,13.80
2018-12-07T03:10:43.004Z,15.10
2018-12-07T03:13:12.333Z,14.70
2018-12-07T03:15:41.419Z,14.33
2018-12-07T03:18:20.267Z,14.77
2018-12-07T03:20:49.542Z,14.90
2018-12-07T03:23:18.571Z,13.90
2018-12-07T03:25:47.662Z,14.00
2018-12-07T03:28:16.972Z,14.50
2018-12-07T03:30:46.301Z,14.77
2018-12-07T03:33:15.546Z,13.60
2018-12-07T03:35:44.777Z,13.67
2018-12-07T03:38:14.116Z,13.60
2018-12-07T03:40:43.799Z,14.53
2018-12-07T03:43:12.911Z,14.30
2018-12-07T03:45:42.117Z,14.40
2018-12-07T03:48:11.364Z,14.70
2018-12-07T03:50:40.472Z,14.33
2018-12-07T03:53:10.190Z,12.73
2018-12-07T03:55:39.912Z,14.13
2018-12-07T03:58:09.075Z,14.73
2018-12-07T04:00:38.404Z,15.10
2018-12-07T04:03:07.622Z,14.03
2018-12-07T04:05:36.727Z,15.57
2018-12-07T04:08:06.110Z,15.60
2018-12-07T04:10:35.334Z,14.87
2018-12-07T04:13:04.520Z,15.03
2018-12-07T04:15:33.752Z,15.13
2018-12-07T04:18:03.200Z,15.33
2018-12-07T04:20:32.431Z,15.63
2018-12-07T04:23:01.668Z,16.63
2018-12-07T04:25:31.211Z,16.57
2018-12-07T04:28:00.319Z,17.97
2018-12-07T04:30:29.747Z,18.10
2018-12-07T04:32:58.955Z,18.33
2018-12-07T04:35:27.971Z,16.40
2018-12-07T04:37:57.049Z,18.10
2018-12-07T04:40:26.222Z,16.80
2018-12-07T04:42:55.336Z,18.57
2018-12-07T04:45:24.478Z,18.67
2018-12-07T04:47:53.773Z,18.40
2018-12-07T04:50:22.888Z,19.40
2018-12-07T04:52:51.963Z,19.30
2018-12-07T04:55:21.580Z,16.90
2018-12-07T04:57:50.768Z,19.73
2018-12-07T05:00:34.159Z,20.90
2018-12-07T05:03:03.354Z,20.50
2018-12-07T05:05:39.066Z,22.90
2018-12-07T05:08:08.176Z,22.17
2018-12-07T05:10:37.394Z,19.67
2018-12-07T05:13:06.696Z,18.40
2018-12-07T05:15:35.827Z,18.97
2018-12-07T05:18:05.024Z,20.07
2018-12-07T05:23:27.375Z,23.97
2018-12-07T05:25:56.446Z,23.20
2018-12-07T05:28:25.876Z,21.13
2018-12-07T05:30:55.073Z,20.73
2018-12-07T05:33:24.116Z,18.20
2018-12-07T05:35:53.532Z,12.70
2018-12-07T05:38:22.678Z,18.93
2018-12-07T05:40:51.899Z,18.33
2018-12-07T05:43:21.062Z,19.50
2018-12-07T05:45:50.264Z,20.30
2018-12-07T05:48:23.576Z,21.23
2018-12-07T05:50:48.910Z,22.23
2018-12-07T05:53:17.915Z,21.53
2018-12-07T05:55:46.929Z,19.57
2018-12-07T05:58:16.087Z,17.10
2018-12-07T06:00:45.314Z,18.23
2018-12-07T06:03:14.546Z,17.63
2018-12-07T06:05:44.046Z,16.47
2018-12-07T06:08:13.192Z,16.13
2018-12-07T06:10:42.240Z,15.67
2018-12-07T06:13:11.571Z,17.93
2018-12-07T06:15:40.631Z,18.43
2018-12-07T06:18:09.812Z,19.00
2018-12-07T06:20:39.147Z,19.43
2018-12-07T06:23:08.265Z,20.33
2018-12-07T06:25:37.550Z,19.77
2018-12-07T06:28:06.843Z,19.60
2018-12-07T06:30:36.009Z,19.73
2018-12-07T06:33:05.221Z,25.07
2018-12-07T06:35:34.632Z,27.60
2018-12-07T06:38:03.719Z,27.33
2018-12-07T06:40:32.924Z,24.53
2018-12-07T06:43:02.251Z,20.83
2018-12-07T06:45:31.400Z,21.53
2018-12-07T06:48:00.655Z,19.30
2018-12-07T06:50:30.037Z,21.60
2018-12-07T06:52:59.220Z,23.97
2018-12-07T06:55:51.876Z,25.63
2018-12-07T06:58:20.960Z,26.37
2018-12-07T07:00:50.231Z,22.50
2018-12-07T07:03:19.538Z,21.13
2018-12-07T07:05:48.775Z,18.80
2018-12-07T07:08:18.028Z,18.20
2018-12-07T07:10:47.161Z,17.73
2018-12-07T07:13:16.350Z,18.10
2018-12-07T07:15:45.410Z,18.43
2018-12-07T07:18:14.817Z,18.53
2018-12-07T07:20:58.782Z,20.87
2018-12-07T07:23:27.972Z,22.97
2018-12-07T07:25:57.194Z,22.33
2018-12-07T07:28:26.190Z,19.17
2018-12-07T07:31:01.895Z,17.80
2018-12-07T07:33:31.098Z,18.90
2018-12-07T07:36:00.083Z,17.13
2018-12-07T07:38:29.440Z,17.43
2018-12-07T07:40:58.632Z,20.00
2018-12-07T07:43:27.859Z,19.43
2018-12-07T07:45:57.213Z,18.43
2018-12-07T07:48:26.358Z,19.43
2018-12-07T07:50:55.326Z,19.27
2018-12-07T07:53:24.800Z,20.00
2018-12-07T07:55:54.019Z,20.13
2018-12-07T07:58:23.216Z,20.73
2018-12-07T08:00:52.308Z,20.83
2018-12-07T08:03:21.367Z,22.20
2018-12-07T08:05:50.407Z,22.23
2018-12-07T08:08:19.679Z,22.33
2018-12-07T08:10:48.870Z,22.07
2018-12-07T08:13:18.103Z,23.90
2018-12-07T08:15:47.237Z,26.77
2018-12-07T08:18:16.536Z,25.13
2018-12-07T08:20:45.927Z,28.03
2018-12-07T08:23:15.138Z,30.33
2018-12-07T08:25:44.227Z,22.00
2018-12-07T08:28:13.342Z,21.27
2018-12-07T08:30:42.940Z,20.57
2018-12-07T08:33:12.113Z,22.87
2018-12-07T08:35:41.319Z,15.77
2018-12-07T08:38:10.524Z,20.90
2018-12-07T08:40:41.814Z,21.37
2018-12-07T08:43:13.550Z,23.20
2018-12-07T08:45:42.919Z,17.30
2018-12-07T08:48:12.071Z,21.83
2018-12-07T08:50:41.271Z,22.17
2018-12-07T08:53:10.367Z,22.47
2018-12-07T08:55:39.381Z,23.23
2018-12-07T08:58:09.341Z,26.93
2018-12-07T09:00:38.491Z,21.27
2018-12-07T09:03:07.721Z,21.60
2018-12-07T09:05:37.015Z,20.80
2018-12-07T09:08:06.204Z,22.13
2018-12-07T09:10:35.338Z,25.63
2018-12-07T09:13:04.545Z,24.90
2018-12-07T09:15:33.863Z,30.67
2018-12-07T09:18:03.384Z,24.97
2018-12-07T09:20:32.869Z,23.30
2018-12-07T09:23:02.283Z,26.77
2018-12-07T09:25:31.413Z,25.37
2018-12-07T09:28:00.555Z,27.10
2018-12-07T09:30:29.587Z,27.03
2018-12-07T09:32:58.570Z,27.57
2018-12-07T09:35:27.725Z,25.53
2018-12-07T09:37:56.761Z,24.63
2018-12-07T09:40:36.795Z,26.37
2018-12-07T09:43:05.811Z,27.40
2018-12-07T09:45:34.938Z,29.47
2018-12-07T09:48:04.041Z,29.20
2018-12-07T09:50:33.012Z,34.87
2018-12-07T09:55:47.590Z,24.67
2018-12-07T09:58:16.667Z,24.70
2018-12-07T10:00:45.884Z,26.00
2018-12-07T10:03:14.888Z,28.27
2018-12-07T10:05:44.261Z,27.03
2018-12-07T10:08:13.346Z,38.43
2018-12-07T10:10:45.324Z,25.17
2018-12-07T10:13:14.349Z,22.60
2018-12-07T10:15:43.444Z,23.40
2018-12-07T10:18:12.556Z,23.30
2018-12-07T10:20:41.585Z,24.30
2018-12-07T10:23:10.728Z,29.47
2018-12-07T10:25:40.104Z,24.33
2018-12-07T10:28:09.329Z,25.30
2018-12-07T10:30:38.417Z,23.00
2018-12-07T10:33:07.470Z,22.57
2018-12-07T10:35:36.447Z,22.33
2018-12-07T10:38:05.593Z,21.17
2018-12-07T10:40:34.755Z,22.67
2018-12-07T10:43:03.786Z,23.70
2018-12-07T10:45:32.807Z,22.87
2018-12-07T10:48:01.853Z,23.40
2018-12-07T10:50:35.295Z,24.27
2018-12-07T10:53:04.377Z,22.60
2018-12-07T10:55:33.355Z,24.77
2018-12-07T10:58:02.405Z,23.00
2018-12-07T11:00:36.460Z,25.57
2018-12-07T11:04:11.848Z,23.93
2018-12-07T11:06:45.809Z,23.83
2018-12-07T11:09:19.852Z,24.50
2018-12-07T11:12:52.688Z,25.37
2018-12-07T11:15:26.733Z,23.97
2018-12-07T11:18:00.817Z,25.50
2018-12-07T11:20:35.796Z,26.27
2018-12-07T11:23:09.954Z,25.00
2018-12-07T11:25:43.983Z,23.60
2018-12-07T11:28:18.721Z,22.07
2018-12-07T11:30:52.643Z,20.77
2018-12-07T11:33:28.915Z,21.73
2018-12-07T11:35:57.892Z,22.70
2018-12-07T11:38:26.848Z,22.80
2018-12-07T11:40:55.880Z,23.07
2018-12-07T11:43:24.913Z,23.43
2018-12-07T11:46:16.870Z,23.70
2018-12-07T11:48:45.843Z,23.23
2018-12-07T11:51:14.913Z,23.37
2018-12-07T11:53:43.927Z,23.53
2018-12-07T11:56:13.171Z,22.90
2018-12-07T11:58:42.187Z,23.47
2018-12-07T12:01:11.765Z,23.33
2018-12-07T12:03:40.712Z,24.77
2018-12-07T12:06:09.704Z,22.90
2018-12-07T12:08:38.764Z,23.93
2018-12-07T12:11:07.800Z,25.33
2018-12-07T12:13:36.834Z,26.30
2018-12-07T12:16:28.147Z,26.90
2018-12-07T12:18:57.268Z,28.00
2018-12-07T12:21:38.873Z,28.60
2018-12-07T12:24:07.937Z,28.17
2018-12-07T12:26:36.971Z,25.73
2018-12-07T12:29:06.075Z,24.90
2018-12-07T12:34:33.193Z,25.73
2018-12-07T12:37:02.236Z,25.63
2018-12-07T12:39:31.252Z,23.43
2018-12-07T12:42:00.346Z,24.43
2018-12-07T12:44:29.326Z,24.57
2018-12-07T12:46:58.405Z,17.43
2018-12-07T12:49:27.621Z,18.43
2018-12-07T12:51:57.144Z,19.60
2018-12-07T12:54:26.261Z,20.60
2018-12-07T12:56:55.310Z,19.47
2018-12-07T12:59:24.297Z,21.23
2018-12-07T13:01:53.295Z,20.50
2018-12-07T13:04:26.150Z,20.73
2018-12-07T13:06:55.356Z,20.53
2018-12-07T13:09:24.464Z,19.77
2018-12-07T13:11:54.276Z,19.17
2018-12-07T13:14:22.693Z,20.87
2018-12-07T13:16:51.745Z,19.70
2018-12-07T13:19:20.875Z,19.47
2018-12-07T13:21:50.748Z,17.90
2018-12-07T13:24:19.908Z,19.50
2018-12-07T13:26:49.571Z,19.20
2018-12-07T13:29:18.628Z,18.73
2018-12-07T13:31:47.696Z,19.07
2018-12-07T13:34:16.760Z,18.97
2018-12-07T13:36:46.132Z,19.70
2018-12-07T13:39:15.195Z,19.63
2018-12-07T13:41:50.365Z,18.37
2018-12-07T13:44:14.554Z,19.93
2018-12-07T13:46:46.184Z,19.60
2018-12-07T13:49:15.592Z,20.60
2018-12-07T13:51:46.034Z,20.70
2018-12-07T13:54:15.312Z,20.07
2018-12-07T13:56:44.381Z,19.77
2018-12-07T13:59:13.574Z,21.43
2018-12-07T14:01:43.133Z,20.90
2018-12-07T14:04:12.383Z,20.97
2018-12-07T14:06:41.265Z,21.50
2018-12-07T14:09:10.456Z,20.67
2018-12-07T14:11:39.377Z,20.43
2018-12-07T14:14:08.621Z,20.23
2018-12-07T14:16:37.798Z,19.83
2018-12-07T14:19:06.905Z,20.67
2018-12-07T14:21:35.876Z,20.60
2018-12-07T14:24:05.290Z,29.13
2018-12-07T14:26:34.340Z,27.40
2018-12-07T14:29:03.409Z,26.67
2018-12-07T14:31:32.439Z,25.73
2018-12-07T14:34:01.482Z,26.60
2018-12-07T14:36:30.500Z,28.00
2018-12-07T14:38:59.726Z,27.23
2018-12-07T14:44:33.407Z,27.30
2018-12-07T14:47:02.382Z,27.60
2018-12-07T14:49:31.445Z,27.30
2018-12-07T14:52:00.533Z,26.80
2018-12-07T14:54:29.571Z,28.93
2018-12-07T14:56:58.615Z,30.17
2018-12-07T14:59:27.704Z,30.77
2018-12-07T15:01:56.946Z,30.83
2018-12-07T15:04:25.866Z,33.50
2018-12-07T15:06:55.026Z,36.60
2018-12-07T15:09:24.159Z,38.20
2018-12-07T15:11:53.002Z,36.60
2018-12-07T15:14:22.061Z,36.07
2018-12-07T15:16:51.070Z,37.80
2018-12-07T15:19:20.087Z,36.97
2018-12-07T15:21:49.147Z,37.03
2018-12-07T15:24:18.213Z,37.10
2018-12-07T15:26:47.281Z,36.63
2018-12-07T15:29:16.224Z,36.63
2018-12-07T15:31:45.441Z,38.23
2018-12-07T15:34:14.261Z,37.60
2018-12-07T15:36:43.426Z,36.77
2018-12-07T15:39:12.362Z,37.57
2018-12-07T15:41:41.491Z,38.60
2018-12-07T15:44:10.497Z,39.93
2018-12-07T15:46:39.482Z,38.83
2018-12-07T15:49:08.424Z,37.00
2018-12-07T15:51:37.510Z,36.20
2018-12-07T15:54:06.649Z,27.97
2018-12-07T15:56:35.716Z,34.83
2018-12-07T15:59:04.707Z,37.73
2018-12-07T16:01:33.782Z,35.80
2018-12-07T16:04:02.784Z,37.50
2018-12-07T16:06:32.114Z,34.47
2018-12-07T16:09:00.883Z,40.77
2018-12-07T16:11:29.911Z,41.67
2018-12-07T16:13:59.049Z,41.43
2018-12-07T16:16:27.974Z,37.17
2018-12-07T16:18:56.942Z,37.53
2018-12-07T16:21:26.051Z,39.33
2018-12-07T16:23:55.076Z,49.33
2018-12-07T16:26:24.116Z,72.73
2018-12-07T16:28:53.106Z,59.77
2018-12-07T16:31:22.196Z,56.23
2018-12-07T16:33:51.365Z,50.17
2018-12-07T16:36:20.351Z,40.37
2018-12-07T16:38:49.489Z,43.13
2018-12-07T16:41:18.603Z,42.37
2018-12-07T16:43:47.813Z,39.23
2018-12-07T16:46:16.950Z,25.97
2018-12-07T16:48:46.091Z,53.20
2018-12-07T16:51:15.094Z,67.93
2018-12-07T16:53:44.139Z,69.43
2018-12-07T16:56:13.146Z,72.00
2018-12-07T16:58:42.293Z,81.97
2018-12-07T17:01:11.332Z,85.73
2018-12-07T17:03:40.769Z,86.17
2018-12-07T17:06:09.992Z,82.87
2018-12-07T17:08:38.888Z,84.47
2018-12-07T17:11:08.087Z,82.57
2018-12-07T17:13:37.130Z,85.50
2018-12-07T17:16:06.253Z,80.23
2018-12-07T17:18:35.606Z,73.37
2018-12-07T17:21:04.645Z,74.80
2018-12-07T17:23:33.609Z,95.37
2018-12-07T17:26:02.742Z,71.93
2018-12-07T17:28:31.999Z,63.03
2018-12-07T17:31:00.981Z,49.23
2018-12-07T17:33:30.117Z,42.97
2018-12-07T17:35:59.339Z,41.87
2018-12-07T17:38:28.170Z,41.00
2018-12-07T17:40:57.220Z,45.80
2018-12-07T17:43:26.314Z,43.63
2018-12-07T17:45:55.426Z,41.83
2018-12-07T17:48:24.677Z,40.27
2018-12-07T17:50:53.639Z,41.43
2018-12-07T17:53:22.749Z,40.80
2018-12-07T17:55:51.825Z,40.53
2018-12-07T17:58:20.918Z,39.07
2018-12-07T18:00:50.176Z,38.13
2018-12-07T18:03:19.131Z,68.70
2018-12-07T18:05:48.286Z,135.23
2018-12-07T18:08:17.408Z,132.40
2018-12-07T18:10:46.335Z,112.27
2018-12-07T18:13:15.576Z,142.07
2018-12-07T18:15:44.829Z,110.63
2018-12-07T18:18:13.868Z,134.90
2018-12-07T18:20:43.157Z,99.03
2018-12-07T18:23:12.163Z,91.20
2018-12-07T18:25:41.015Z,87.67
2018-12-07T18:28:10.410Z,77.10
2018-12-07T18:30:39.412Z,68.93
2018-12-07T18:33:08.600Z,63.50
2018-12-07T18:35:38.361Z,60.77
2018-12-07T18:38:07.621Z,55.90
2018-12-07T18:40:36.667Z,47.30
2018-12-07T18:43:05.650Z,43.80
2018-12-07T18:45:34.995Z,42.07
2018-12-07T18:48:03.810Z,40.90
2018-12-07T18:50:32.992Z,38.27
2018-12-07T18:53:01.867Z,39.80
2018-12-07T18:55:31.092Z,38.80
2018-12-07T18:58:00.425Z,35.17
2018-12-07T19:00:29.321Z,34.27
2018-12-07T19:02:58.377Z,34.80
2018-12-07T19:05:27.421Z,36.63
2018-12-07T19:07:56.602Z,35.80
2018-12-07T19:10:25.717Z,35.73
2018-12-07T19:12:54.571Z,36.90
2018-12-07T19:15:23.912Z,38.00
2018-12-07T19:17:52.816Z,39.93
2018-12-07T19:20:22.259Z,43.97
2018-12-07T19:22:51.357Z,51.73
2018-12-07T19:25:20.431Z,56.50
2018-12-07T19:27:49.476Z,51.17
2018-12-07T19:30:18.776Z,38.50
2018-12-07T19:32:47.597Z,34.73
2018-12-07T19:35:16.803Z,31.90
2018-12-07T19:37:45.812Z,30.83
2018-12-07T19:40:15.048Z,31.60
2018-12-07T19:42:44.190Z,30.93
2018-12-07T19:45:13.235Z,30.57
2018-12-07T19:47:42.395Z,30.00
2018-12-07T19:50:11.608Z,30.27
2018-12-07T19:52:40.817Z,29.50
2018-12-07T19:55:10.838Z,29.47
2018-12-07T19:57:39.375Z,30.20
2018-12-07T20:00:10.117Z,31.30
2018-12-07T20:02:38.917Z,29.03
2018-12-07T20:05:08.578Z,28.57
2018-12-07T20:07:37.732Z,27.80
2018-12-07T20:10:07.404Z,28.90
2018-12-07T20:12:36.562Z,31.10
2018-12-07T20:15:05.630Z,37.53
2018-12-07T20:17:34.956Z,38.60
2018-12-07T20:20:04.153Z,35.80
2018-12-07T20:22:33.006Z,35.90
2018-12-07T20:25:02.171Z,39.27
2018-12-07T20:27:31.360Z,37.80
2018-12-07T20:30:00.187Z,38.53
2018-12-07T20:32:29.444Z,40.30
2018-12-07T20:34:58.274Z,39.13
2018-12-07T20:37:27.456Z,39.03
2018-12-07T20:39:56.293Z,47.70
2018-12-07T20:42:25.606Z,40.63
2018-12-07T20:44:54.519Z,39.13
2018-12-07T20:47:25.001Z,36.47
2018-12-07T20:49:52.871Z,32.47
2018-12-07T20:52:21.693Z,35.60
2018-12-07T20:54:50.895Z,39.17
2018-12-07T20:57:19.849Z,38.80
2018-12-07T20:59:48.923Z,39.47
2018-12-07T21:02:18.277Z,39.47
2018-12-07T21:04:47.594Z,42.87
2018-12-07T21:09:43.131Z,51.60
2018-12-07T21:12:25.708Z,67.87
2018-12-07T21:14:56.606Z,79.00
2018-12-07T21:17:31.680Z,86.17
2018-12-07T21:20:17.231Z,75.30
2018-12-07T21:22:46.282Z,65.53
2018-12-07T21:25:15.418Z,62.33
2018-12-07T21:27:44.622Z,56.23
2018-12-07T21:30:52.766Z,47.07
2018-12-07T21:33:27.360Z,43.13
2018-12-07T21:37:02.627Z,39.30
2018-12-07T21:39:38.935Z,31.97
2018-12-07T21:42:08.126Z,30.63
2018-12-07T21:44:37.030Z,31.00
2018-12-07T21:47:06.004Z,29.00
2018-12-07T21:49:48.642Z,28.57
2018-12-07T21:52:24.100Z,27.43
2018-12-07T21:54:53.040Z,27.13
2018-12-07T21:57:22.449Z,29.33
2018-12-07T21:59:51.204Z,27.13
2018-12-07T22:02:20.703Z,27.20
2018-12-07T22:04:49.698Z,28.60
2018-12-07T22:07:18.964Z,31.50
2018-12-07T22:09:48.429Z,30.93
2018-12-07T22:12:17.227Z,31.77
2018-12-07T22:14:46.499Z,29.63
2018-12-07T22:17:15.396Z,28.03
2018-12-07T22:19:44.374Z,29.17
2018-12-07T22:22:13.526Z,32.17
2018-12-07T22:24:42.619Z,38.10
2018-12-07T22:27:11.829Z,38.10
2018-12-07T22:29:40.683Z,37.20
2018-12-07T22:32:09.949Z,35.70
2018-12-07T22:34:38.746Z,36.20
2018-12-07T22:37:07.891Z,35.57
2018-12-07T22:39:36.959Z,33.87
2018-12-07T22:42:05.910Z,33.57
2018-12-07T22:44:34.964Z,32.90
2018-12-07T22:47:04.273Z,33.93
2018-12-07T22:49:33.302Z,34.33
2018-12-07T22:52:02.244Z,33.87
2018-12-07T22:54:31.290Z,32.20
2018-12-07T22:57:00.306Z,32.40
2018-12-07T22:59:29.267Z,33.40
2018-12-07T23:01:58.339Z,33.33
2018-12-07T23:04:27.368Z,33.30
2018-12-07T23:06:56.319Z,34.07
2018-12-07T23:09:25.359Z,31.93
2018-12-07T23:11:54.339Z,30.80
2018-12-07T23:14:23.342Z,32.43
2018-12-07T23:16:52.332Z,32.60
2018-12-07T23:19:21.336Z,28.63
2018-12-07T23:21:50.285Z,30.37
2018-12-07T23:24:19.365Z,30.97
2018-12-07T23:26:48.301Z,28.80
2018-12-07T23:29:23.808Z,29.77
2018-12-07T23:31:52.805Z,29.30
2018-12-07T23:34:21.756Z,28.53
2018-12-07T23:36:50.814Z,28.50
2018-12-07T23:39:19.775Z,29.53
2018-12-07T23:41:48.803Z,30.37
2018-12-07T23:44:17.860Z,31.97
2018-12-07T23:46:46.895Z,33.17
2018-12-07T23:49:15.861Z,34.63
2018-12-07T23:51:45.210Z,35.53
2018-12-07T23:54:14.271Z,32.27
2018-12-07T23:56:43.213Z,32.87
2018-12-07T23:59:12.296Z,32.17
